Etusivu
METAR-TAF:

METAR-TAF

Lentoasemat :

Tunis, Tunisia

Leveyspiiri: 36-50N, Pituuspiiri: 010-14E, korkeus merenpinnasta: 3 m

Tämänhetkinen sää

Tämä raportti tehtiin 15 minuuttia sitten, kello 00.30 UTC
Tuuli 10 kn lännestä/luoteesta
Lämpötila 18°C
Kosteus 59%
Ilmanpaine 1017 hPa
Näkyvyys 10 km tai enemmän
Muutamia pilviä 3300 ft:n korkeudessa

METAR: DTTA 180030Z 29010KT 9999 FEW033 18/10 Q1017

Aika: 01:45 (00:45 UTC)

Sääennuste

Tämä raportti tehtiin 7 tuntia ja 45 minuuttia sitten, kello 17.00 UTC
Ennuste voimassa 17. päivästä klo 18 UTC - 18. päivään klo 18 UTC
Tuuli 10 kn pohjoisen/luoteesta
Näkyvyys 10 km tai enemmän
ei pilviä alle 1500 m:ssä eikä cumulonimbus-pilviä
Todennäköisyys 40% :
Ajoittain
18. päivästä klo 02 UTC - 18. päivään klo 08 UTC
Tuuli 15 kn pohjoisen/luoteesta puuskistuen 25 kn:hen

TAF: DTTA 171700Z 1718/1818 34010KT CAVOK PROB40 TEMPO 1802/1808 34015G25KT

Säähavainnot ja -ennusteet yli 4000 lentoasemalta (METAR- ja TAF-raportit).

Käytössä olevat sääasemat on merkitty karttaan keltaisilla ja punaisilla pisteillä.

Aseta hiiri pisteen päälle nähdäksesi sääaseman nimen.

Klikkaa sitten nähdäksesi säähavainnot ja -ennusteet.

Kartan vaihtaminen: klikkaa mustalla rastilla varustettuja vihreitä pisteitä, niin voit zoomata sisään; viivalla varustettua vihreää pistettä, niin voit zoomata ulos tai vihreitä nuolia, niin pääset viereisille kartoille.


METAR-TAF: